createdAt,value
2022-10-01T00:01:20.118Z,39.30
2022-10-01T00:04:24.271Z,40.40
2022-10-01T00:07:26.546Z,39.00
2022-10-01T00:10:30.393Z,35.70
2022-10-01T00:13:32.343Z,36.40
2022-10-01T00:16:34.729Z,37.60
2022-10-01T00:19:36.699Z,43.50
2022-10-01T00:22:39.219Z,50.40
2022-10-01T00:25:41.499Z,36.20
2022-10-01T00:28:45.790Z,47.60
2022-10-01T00:31:47.824Z,37.20
2022-10-01T00:34:49.794Z,34.80
2022-10-01T00:37:52.495Z,57.90
2022-10-01T00:40:54.280Z,42.90
2022-10-01T00:44:02.259Z,97.50
2022-10-01T00:47:27.160Z,99.00
2022-10-01T00:50:33.875Z,148.20
2022-10-01T00:53:35.707Z,70.70
2022-10-01T00:56:38.319Z,138.20
2022-10-01T00:59:40.186Z,71.40
2022-10-01T01:02:42.383Z,37.50
2022-10-01T01:05:44.265Z,32.40
2022-10-01T01:08:46.066Z,38.10
2022-10-01T01:12:26.522Z,36.20
2022-10-01T01:15:46.733Z,34.70
2022-10-01T01:19:13.869Z,32.50
2022-10-01T01:22:17.404Z,35.20
2022-10-01T01:25:29.253Z,34.90
2022-10-01T01:28:53.433Z,36.70
2022-10-01T01:31:58.981Z,34.50
2022-10-01T01:35:02.995Z,37.20
2022-10-01T01:38:11.578Z,41.20
2022-10-01T01:41:15.807Z,39.20
2022-10-01T01:44:30.212Z,37.30
2022-10-01T01:47:34.682Z,37.30
2022-10-01T01:50:42.647Z,39.80
2022-10-01T01:53:44.542Z,39.90
2022-10-01T01:56:46.834Z,44.10
2022-10-01T01:59:48.876Z,38.60
2022-10-01T02:02:52.840Z,39.90
2022-10-01T02:06:07.074Z,40.00
2022-10-01T02:09:11.706Z,43.90
2022-10-01T02:12:32.526Z,47.00
2022-10-01T02:16:04.670Z,43.20
2022-10-01T02:19:21.233Z,43.70
2022-10-01T02:22:41.557Z,38.90
2022-10-01T02:25:47.082Z,41.00
2022-10-01T02:28:51.653Z,41.30
2022-10-01T02:31:55.926Z,44.90
2022-10-01T02:34:59.109Z,47.50
2022-10-01T02:38:03.693Z,51.50
2022-10-01T02:41:08.894Z,53.20
2022-10-01T02:44:15.098Z,49.40
2022-10-01T02:47:33.501Z,50.60
2022-10-01T02:50:49.121Z,47.20
2022-10-01T02:53:55.704Z,44.50
2022-10-01T02:57:17.362Z,46.40
2022-10-01T03:03:26.337Z,50.20
2022-10-01T03:06:28.543Z,49.20
2022-10-01T03:09:34.717Z,51.20
2022-10-01T03:12:36.859Z,54.90
2022-10-01T03:15:39.445Z,53.50
2022-10-01T03:18:41.372Z,53.80
2022-10-01T03:21:43.276Z,56.70
2022-10-01T03:24:45.213Z,57.80
2022-10-01T03:27:47.112Z,59.50
2022-10-01T03:30:48.860Z,56.20
2022-10-01T03:33:50.693Z,61.20
2022-10-01T03:36:53.093Z,57.80
2022-10-01T03:39:54.936Z,69.50
2022-10-01T03:42:56.801Z,66.80
2022-10-01T03:45:58.593Z,58.10
2022-10-01T03:49:01.304Z,58.60
2022-10-01T03:52:04.632Z,65.80
2022-10-01T03:55:07.289Z,56.40
2022-10-01T03:58:09.847Z,65.50
2022-10-01T04:01:12.161Z,54.90
2022-10-01T04:04:15.044Z,51.30
2022-10-01T04:07:16.799Z,50.20
2022-10-01T04:10:18.630Z,50.70
2022-10-01T04:13:20.552Z,47.40
2022-10-01T04:16:22.408Z,48.80
2022-10-01T04:19:24.191Z,50.90
2022-10-01T04:22:25.942Z,50.40
2022-10-01T04:25:28.550Z,47.60
2022-10-01T04:28:31.623Z,47.30
2022-10-01T04:31:35.241Z,48.70
2022-10-01T04:34:52.930Z,49.00
2022-10-01T04:37:59.308Z,51.50
2022-10-01T04:41:01.422Z,53.60
2022-10-01T04:44:03.306Z,51.80
2022-10-01T04:47:05.763Z,49.80
2022-10-01T04:50:07.857Z,48.20
2022-10-01T04:53:09.643Z,53.50
2022-10-01T04:56:11.372Z,53.70
2022-10-01T04:59:13.163Z,56.00
2022-10-01T05:02:15.021Z,47.90
2022-10-01T05:05:18.443Z,48.20
2022-10-01T05:08:21.225Z,51.10
2022-10-01T05:11:22.983Z,46.50
2022-10-01T05:14:25.058Z,51.30
2022-10-01T05:17:26.772Z,49.30
2022-10-01T05:20:29.219Z,51.50
2022-10-01T05:23:31.403Z,52.90
2022-10-01T05:26:33.153Z,59.00
2022-10-01T05:29:35.459Z,88.50
2022-10-01T05:32:37.962Z,103.90
2022-10-01T05:35:41.169Z,114.50
2022-10-01T05:38:43.414Z,83.60
2022-10-01T05:41:45.345Z,59.70
2022-10-01T05:44:47.176Z,58.50
2022-10-01T05:47:55.753Z,62.90
2022-10-01T05:50:58.978Z,69.60
2022-10-01T05:54:04.620Z,70.40
2022-10-01T05:57:08.097Z,60.10
2022-10-01T06:00:10.591Z,60.00
2022-10-01T06:03:13.208Z,60.60
2022-10-01T06:06:15.258Z,68.00
2022-10-01T06:09:17.113Z,75.10
2022-10-01T06:12:20.025Z,77.20
2022-10-01T06:15:21.912Z,73.10
2022-10-01T06:18:23.759Z,65.80
2022-10-01T06:21:25.921Z,63.40
2022-10-01T06:24:27.664Z,67.40
2022-10-01T06:27:29.477Z,64.10
2022-10-01T06:30:33.190Z,64.30
2022-10-01T06:33:35.558Z,59.80
2022-10-01T06:36:37.261Z,67.00
2022-10-01T06:39:39.109Z,63.10
2022-10-01T06:42:47.556Z,64.20
2022-10-01T06:45:49.502Z,64.80
2022-10-01T06:48:51.282Z,61.70
2022-10-01T06:52:11.819Z,58.90
2022-10-01T06:55:16.620Z,60.60
2022-10-01T06:58:22.684Z,59.20
2022-10-01T07:01:24.562Z,61.90
2022-10-01T07:04:26.425Z,61.00
2022-10-01T07:07:31.463Z,61.20
2022-10-01T07:10:34.962Z,54.40
2022-10-01T07:13:36.694Z,60.10
2022-10-01T07:16:39.517Z,57.10
2022-10-01T07:19:41.434Z,52.10
2022-10-01T07:22:44.485Z,56.30
2022-10-01T07:25:46.858Z,54.50
2022-10-01T07:28:48.576Z,53.40
2022-10-01T07:32:00.933Z,55.40
2022-10-01T07:35:02.943Z,58.10
2022-10-01T07:38:06.645Z,61.70
2022-10-01T07:41:09.202Z,58.00
2022-10-01T07:44:13.843Z,56.90
2022-10-01T07:47:15.649Z,54.80
2022-10-01T07:50:17.372Z,53.40
2022-10-01T07:53:19.749Z,53.40
2022-10-01T07:56:22.226Z,49.60
2022-10-01T07:59:24.638Z,48.70
2022-10-01T08:02:26.585Z,45.40
2022-10-01T08:05:32.063Z,45.90
2022-10-01T08:08:33.949Z,42.30
2022-10-01T08:11:38.166Z,43.10
2022-10-01T08:14:40.005Z,41.00
2022-10-01T08:17:42.506Z,46.50
2022-10-01T08:20:44.488Z,42.60
2022-10-01T08:23:46.485Z,45.10
2022-10-01T08:26:53.642Z,40.40
2022-10-01T08:29:55.699Z,42.20
2022-10-01T08:32:58.799Z,42.50
2022-10-01T08:36:05.066Z,40.90
2022-10-01T08:39:07.309Z,40.40
2022-10-01T08:42:26.191Z,41.90
2022-10-01T08:45:49.560Z,39.50
2022-10-01T08:49:06.717Z,40.30
2022-10-01T08:52:29.998Z,39.70
2022-10-01T08:55:36.645Z,42.00
2022-10-01T08:58:44.734Z,40.70
2022-10-01T09:01:46.538Z,40.70
2022-10-01T09:04:52.006Z,36.30
2022-10-01T09:08:16.319Z,38.50
2022-10-01T09:11:38.882Z,37.00
2022-10-01T09:14:49.795Z,40.00
2022-10-01T09:18:12.901Z,40.10
2022-10-01T09:21:54.624Z,41.00
2022-10-01T09:25:14.874Z,42.00
2022-10-01T09:28:30.254Z,40.20
2022-10-01T09:31:38.387Z,40.30
2022-10-01T09:34:42.999Z,39.40
2022-10-01T09:37:56.121Z,43.90
2022-10-01T09:40:59.155Z,39.30
2022-10-01T09:44:01.937Z,39.40
2022-10-01T09:47:03.873Z,39.60
2022-10-01T09:50:06.718Z,41.40
2022-10-01T09:53:18.783Z,37.10
2022-10-01T09:57:10.171Z,40.50
2022-10-01T10:00:20.400Z,37.60
2022-10-01T10:03:30.533Z,38.60
2022-10-01T10:06:33.064Z,36.30
2022-10-01T10:09:35.970Z,35.60
2022-10-01T10:12:37.827Z,36.40
2022-10-01T10:15:58.324Z,35.90
2022-10-01T10:19:04.561Z,34.90
2022-10-01T10:22:12.267Z,37.20
2022-10-01T10:25:21.237Z,35.70
2022-10-01T10:28:24.504Z,37.70
2022-10-01T10:31:28.758Z,35.60
2022-10-01T10:34:40.657Z,35.20
2022-10-01T10:37:48.598Z,33.90
2022-10-01T10:40:51.274Z,36.40
2022-10-01T10:43:59.285Z,36.90
2022-10-01T10:47:03.442Z,37.20
2022-10-01T10:50:06.652Z,34.70
2022-10-01T10:53:22.641Z,135.20
2022-10-01T10:56:25.637Z,123.40
2022-10-01T10:59:29.840Z,45.10
2022-10-01T11:02:33.337Z,43.80
2022-10-01T11:05:41.765Z,41.40
2022-10-01T11:08:44.186Z,41.20
2022-10-01T11:12:01.963Z,41.40
2022-10-01T11:15:16.664Z,39.10
2022-10-01T11:18:41.661Z,40.60
2022-10-01T11:22:02.360Z,44.00
2022-10-01T11:25:22.813Z,42.40
2022-10-01T11:28:46.292Z,39.90
2022-10-01T11:32:03.222Z,36.70
2022-10-01T11:35:18.759Z,35.40
2022-10-01T11:38:36.389Z,33.60
2022-10-01T11:41:45.055Z,35.00
2022-10-01T11:45:00.524Z,33.90
2022-10-01T11:48:33.047Z,31.50
2022-10-01T11:51:39.839Z,33.40
2022-10-01T11:55:31.482Z,31.60
2022-10-01T12:02:15.419Z,32.50
2022-10-01T12:05:20.621Z,35.00
2022-10-01T12:08:27.302Z,34.30
2022-10-01T12:11:35.462Z,34.80
2022-10-01T12:14:49.341Z,37.80
2022-10-01T12:18:13.344Z,30.40
2022-10-01T12:21:28.011Z,28.40
2022-10-01T12:24:33.360Z,28.20
2022-10-01T12:28:02.925Z,33.40
2022-10-01T12:31:33.426Z,31.30
2022-10-01T12:34:54.244Z,28.90
2022-10-01T12:38:24.261Z,31.60
2022-10-01T12:41:36.070Z,29.60
2022-10-01T12:44:45.918Z,29.80
2022-10-01T12:48:03.761Z,30.80
2022-10-01T12:51:11.319Z,29.50
2022-10-01T12:54:39.154Z,28.40
2022-10-01T12:57:51.976Z,36.70
2022-10-01T13:00:57.288Z,27.30
2022-10-01T13:04:07.975Z,27.10
2022-10-01T13:07:31.775Z,26.40
2022-10-01T13:10:36.207Z,27.80
2022-10-01T13:13:38.819Z,30.20
2022-10-01T13:16:56.701Z,26.60
2022-10-01T13:20:06.431Z,25.10
2022-10-01T13:23:39.525Z,26.90
2022-10-01T13:27:13.219Z,25.60
2022-10-01T13:30:26.128Z,24.40
2022-10-01T13:33:32.284Z,24.30
2022-10-01T13:36:36.733Z,24.40
2022-10-01T13:39:42.283Z,25.60
2022-10-01T13:42:46.312Z,28.90
2022-10-01T13:45:50.755Z,23.80
2022-10-01T13:48:52.717Z,27.00
2022-10-01T13:51:54.976Z,25.20
2022-10-01T13:54:58.002Z,23.80
2022-10-01T13:58:19.507Z,23.50
2022-10-01T14:01:24.291Z,25.50
2022-10-01T14:04:40.898Z,23.60
2022-10-01T14:07:43.983Z,23.80
2022-10-01T14:11:10.145Z,24.90
2022-10-01T14:14:51.651Z,24.60
2022-10-01T14:21:21.005Z,23.80
2022-10-01T14:24:33.729Z,25.20
2022-10-01T14:27:54.429Z,25.70
2022-10-01T14:31:07.643Z,25.20
2022-10-01T14:34:33.876Z,24.90
2022-10-01T14:37:39.467Z,23.20
2022-10-01T14:40:43.506Z,25.80
2022-10-01T14:43:45.511Z,28.40
2022-10-01T14:46:47.361Z,26.00
2022-10-01T14:49:50.099Z,26.40
2022-10-01T14:52:53.285Z,26.20
2022-10-01T14:55:57.406Z,26.70
2022-10-01T14:59:03.449Z,26.10
2022-10-01T15:02:18.517Z,27.20
2022-10-01T15:05:23.144Z,28.80
2022-10-01T15:08:49.670Z,30.60
2022-10-01T15:11:52.002Z,29.20
2022-10-01T15:14:54.640Z,31.70
2022-10-01T15:17:57.170Z,27.40
2022-10-01T15:21:02.761Z,27.80
2022-10-01T15:24:06.631Z,31.70
2022-10-01T15:27:09.972Z,30.20
2022-10-01T15:30:15.803Z,31.20
2022-10-01T15:33:33.341Z,32.00
2022-10-01T15:36:36.029Z,31.80
2022-10-01T15:39:40.033Z,25.50
2022-10-01T15:43:12.225Z,30.30
2022-10-01T15:46:29.386Z,27.70
2022-10-01T15:49:31.293Z,29.60
2022-10-01T15:52:53.960Z,33.30
2022-10-01T15:55:58.547Z,31.40
2022-10-01T15:59:29.777Z,36.60
2022-10-01T16:02:32.081Z,34.90
2022-10-01T16:05:44.466Z,36.40
2022-10-01T16:09:03.249Z,36.50
2022-10-01T16:12:20.394Z,36.70
2022-10-01T16:15:30.142Z,35.60
2022-10-01T16:18:34.786Z,40.70
2022-10-01T16:21:40.539Z,39.30
2022-10-01T16:24:54.887Z,37.00
2022-10-01T16:28:03.962Z,38.30
2022-10-01T16:31:06.073Z,33.70
2022-10-01T16:34:12.499Z,40.30
2022-10-01T16:37:14.243Z,44.20
2022-10-01T16:40:17.652Z,41.10
2022-10-01T16:43:24.508Z,46.40
2022-10-01T16:46:26.465Z,46.60
2022-10-01T16:49:28.346Z,43.90
2022-10-01T16:52:30.177Z,48.10
2022-10-01T16:55:36.013Z,56.70
2022-10-01T16:58:39.010Z,50.60
2022-10-01T17:01:40.754Z,47.10
2022-10-01T17:04:42.570Z,46.60
2022-10-01T17:07:45.307Z,51.80
2022-10-01T17:10:59.293Z,49.20
2022-10-01T17:14:08.282Z,54.20
2022-10-01T17:17:10.201Z,65.50
2022-10-01T17:20:12.362Z,48.80
2022-10-01T17:23:15.986Z,48.30
2022-10-01T17:26:17.819Z,50.80
2022-10-01T17:29:19.591Z,59.30
2022-10-01T17:32:21.568Z,64.80
2022-10-01T17:35:23.474Z,69.50
2022-10-01T17:38:25.354Z,69.70
2022-10-01T17:41:27.498Z,73.70
2022-10-01T17:44:29.455Z,74.70
2022-10-01T17:47:31.449Z,72.90
2022-10-01T17:50:33.454Z,68.60
2022-10-01T17:53:42.138Z,67.00
2022-10-01T17:56:44.911Z,69.20
2022-10-01T17:59:47.782Z,66.80
2022-10-01T18:02:49.635Z,70.80
2022-10-01T18:05:54.521Z,71.10
2022-10-01T18:08:56.961Z,70.90
2022-10-01T18:11:59.670Z,66.50
2022-10-01T18:15:02.158Z,64.70
2022-10-01T18:21:25.901Z,80.80
2022-10-01T18:24:28.857Z,71.00
2022-10-01T18:27:31.102Z,69.60
2022-10-01T18:30:33.045Z,66.80
2022-10-01T18:33:34.945Z,67.70
2022-10-01T18:36:36.972Z,63.60
2022-10-01T18:39:49.974Z,69.00
2022-10-01T18:43:07.303Z,69.70
2022-10-01T18:46:15.005Z,67.80
2022-10-01T18:49:29.079Z,66.00
2022-10-01T18:52:35.980Z,64.10
2022-10-01T18:56:22.312Z,63.00
2022-10-01T19:00:02.513Z,59.30
2022-10-01T19:03:16.701Z,59.90
2022-10-01T19:06:21.286Z,59.30
2022-10-01T19:09:39.631Z,62.40
2022-10-01T19:12:53.047Z,58.90
2022-10-01T19:16:22.987Z,57.20
2022-10-01T19:19:27.896Z,57.70
2022-10-01T19:22:51.858Z,59.40
2022-10-01T19:26:11.076Z,57.80
2022-10-01T19:29:22.537Z,62.10
2022-10-01T19:35:48.659Z,58.30
2022-10-01T19:38:51.481Z,62.50
2022-10-01T19:42:23.975Z,81.60
2022-10-01T19:45:46.723Z,55.70
2022-10-01T19:49:11.346Z,31.70
2022-10-01T19:52:18.256Z,29.00
2022-10-01T19:55:21.479Z,26.30
2022-10-01T19:58:24.056Z,26.40
2022-10-01T20:01:39.467Z,25.20
2022-10-01T20:04:51.824Z,21.00
2022-10-01T20:08:01.583Z,19.50
2022-10-01T20:11:13.694Z,20.70
2022-10-01T20:14:40.263Z,17.00
2022-10-01T20:17:55.771Z,15.80
2022-10-01T20:21:06.867Z,16.10
2022-10-01T20:24:29.035Z,18.20
2022-10-01T20:27:55.652Z,16.60
2022-10-01T20:31:16.458Z,18.40
2022-10-01T20:34:50.952Z,17.40
2022-10-01T20:38:07.102Z,18.70
2022-10-01T20:41:18.194Z,25.50
2022-10-01T20:44:38.396Z,21.00
2022-10-01T20:47:47.827Z,21.70
2022-10-01T20:50:54.115Z,22.50
2022-10-01T20:54:00.297Z,23.40
2022-10-01T20:57:20.630Z,21.70
2022-10-01T21:00:25.020Z,22.10
2022-10-01T21:03:38.515Z,21.30
2022-10-01T21:06:44.494Z,22.10
2022-10-01T21:09:50.410Z,20.40
2022-10-01T21:13:08.227Z,21.40
2022-10-01T21:16:32.916Z,21.80
2022-10-01T21:20:21.117Z,23.70
2022-10-01T21:23:36.014Z,21.50
2022-10-01T21:27:04.698Z,24.20
2022-10-01T21:30:20.392Z,24.20
2022-10-01T21:33:30.342Z,22.90
2022-10-01T21:36:50.432Z,21.80
2022-10-01T21:40:19.770Z,21.80
2022-10-01T21:43:40.326Z,22.00
2022-10-01T21:46:42.575Z,22.90
2022-10-01T21:49:59.322Z,25.00
2022-10-01T21:53:25.491Z,20.30
2022-10-01T21:56:30.539Z,24.50
2022-10-01T21:59:49.936Z,23.80
2022-10-01T22:03:10.659Z,21.20
2022-10-01T22:06:18.246Z,22.90
2022-10-01T22:09:46.783Z,22.20
2022-10-01T22:12:50.311Z,22.80
2022-10-01T22:15:59.389Z,23.00
2022-10-01T22:19:07.099Z,22.40
2022-10-01T22:22:15.223Z,19.90
2022-10-01T22:25:17.116Z,22.80
2022-10-01T22:28:23.036Z,23.60
2022-10-01T22:31:28.214Z,23.40
2022-10-01T22:34:34.694Z,23.20
2022-10-01T22:37:44.390Z,24.30
2022-10-01T22:40:58.836Z,21.10
2022-10-01T22:44:05.037Z,22.90
2022-10-01T22:47:26.126Z,21.00
2022-10-01T22:51:13.209Z,21.30
2022-10-01T22:54:35.306Z,24.10
2022-10-01T22:57:52.733Z,21.70
2022-10-01T23:01:06.129Z,22.20
2022-10-01T23:04:36.514Z,21.00
2022-10-01T23:08:04.098Z,21.30
2022-10-01T23:11:20.326Z,19.60
2022-10-01T23:14:40.258Z,19.50
2022-10-01T23:17:51.298Z,20.10
2022-10-01T23:21:17.344Z,19.10
2022-10-01T23:24:31.899Z,20.40
2022-10-01T23:27:55.027Z,19.60
2022-10-01T23:31:27.693Z,19.50
2022-10-01T23:34:53.980Z,18.30
2022-10-01T23:38:20.777Z,18.20
2022-10-01T23:41:33.471Z,18.30
2022-10-01T23:44:52.172Z,19.70
2022-10-01T23:48:14.197Z,19.10
2022-10-01T23:51:25.905Z,19.80
2022-10-01T23:54:37.324Z,18.30
2022-10-01T23:57:40.731Z,19.80
